sensor_id;sensor_type;location;lat;lon;timestamp;P1;durP1;ratioP1;P2;durP2;ratioP2
72087;SDS011;59961;50.232;8.616;2023-05-10T00:00:57;1.40;;;1.10;;
72087;SDS011;59961;50.232;8.616;2023-05-10T00:03:22;5.00;;;1.33;;
72087;SDS011;59961;50.232;8.616;2023-05-10T00:05:47;1.80;;;1.27;;
72087;SDS011;59961;50.232;8.616;2023-05-10T00:08:12;1.80;;;1.02;;
72087;SDS011;59961;50.232;8.616;2023-05-10T00:10:38;3.30;;;1.07;;
72087;SDS011;59961;50.232;8.616;2023-05-10T00:13:03;3.23;;;1.03;;
72087;SDS011;59961;50.232;8.616;2023-05-10T00:15:28;2.22;;;1.20;;
72087;SDS011;59961;50.232;8.616;2023-05-10T00:17:55;3.38;;;0.93;;
72087;SDS011;59961;50.232;8.616;2023-05-10T00:20:20;1.87;;;1.13;;
72087;SDS011;59961;50.232;8.616;2023-05-10T00:22:45;2.60;;;1.10;;
72087;SDS011;59961;50.232;8.616;2023-05-10T00:25:10;2.65;;;1.10;;
72087;SDS011;59961;50.232;8.616;2023-05-10T00:27:36;4.40;;;1.20;;
72087;SDS011;59961;50.232;8.616;2023-05-10T00:30:01;7.87;;;1.23;;
72087;SDS011;59961;50.232;8.616;2023-05-10T00:32:26;1.60;;;0.87;;
72087;SDS011;59961;50.232;8.616;2023-05-10T00:34:51;4.18;;;0.88;;
72087;SDS011;59961;50.232;8.616;2023-05-10T00:37:16;2.20;;;0.80;;
72087;SDS011;59961;50.232;8.616;2023-05-10T00:39:42;3.55;;;0.90;;
72087;SDS011;59961;50.232;8.616;2023-05-10T00:42:07;1.35;;;1.00;;
72087;SDS011;59961;50.232;8.616;2023-05-10T00:44:32;1.53;;;0.90;;
72087;SDS011;59961;50.232;8.616;2023-05-10T00:46:57;1.63;;;0.90;;
72087;SDS011;59961;50.232;8.616;2023-05-10T00:49:23;1.27;;;0.82;;
72087;SDS011;59961;50.232;8.616;2023-05-10T00:51:48;1.50;;;0.90;;
72087;SDS011;59961;50.232;8.616;2023-05-10T00:54:14;1.20;;;0.80;;
72087;SDS011;59961;50.232;8.616;2023-05-10T00:56:40;0.82;;;0.63;;
72087;SDS011;59961;50.232;8.616;2023-05-10T00:59:05;0.90;;;0.70;;
72087;SDS011;59961;50.232;8.616;2023-05-10T01:01:30;2.20;;;0.70;;
72087;SDS011;59961;50.232;8.616;2023-05-10T01:03:55;0.70;;;0.60;;
72087;SDS011;59961;50.232;8.616;2023-05-10T01:06:20;1.17;;;0.60;;
72087;SDS011;59961;50.232;8.616;2023-05-10T01:08:45;1.47;;;0.60;;
72087;SDS011;59961;50.232;8.616;2023-05-10T01:11:11;1.30;;;0.67;;
72087;SDS011;59961;50.232;8.616;2023-05-10T01:13:37;1.50;;;0.88;;
72087;SDS011;59961;50.232;8.616;2023-05-10T01:16:03;1.33;;;0.45;;
72087;SDS011;59961;50.232;8.616;2023-05-10T01:18:30;0.60;;;0.50;;
72087;SDS011;59961;50.232;8.616;2023-05-10T01:23:49;1.52;;;0.60;;
72087;SDS011;59961;50.232;8.616;2023-05-10T01:29:11;0.82;;;0.38;;
72087;SDS011;59961;50.232;8.616;2023-05-10T01:31:54;1.63;;;1.38;;
72087;SDS011;59961;50.232;8.616;2023-05-10T01:34:33;1.70;;;0.40;;
72087;SDS011;59961;50.232;8.616;2023-05-10T01:37:05;1.33;;;0.60;;
72087;SDS011;59961;50.232;8.616;2023-05-10T01:42:36;0.95;;;0.50;;
72087;SDS011;59961;50.232;8.616;2023-05-10T01:45:13;1.83;;;0.75;;
72087;SDS011;59961;50.232;8.616;2023-05-10T01:47:41;0.70;;;0.70;;
72087;SDS011;59961;50.232;8.616;2023-05-10T01:50:10;1.35;;;1.13;;
72087;SDS011;59961;50.232;8.616;2023-05-10T01:52:36;0.50;;;0.50;;
72087;SDS011;59961;50.232;8.616;2023-05-10T01:55:07;1.10;;;0.70;;
72087;SDS011;59961;50.232;8.616;2023-05-10T01:57:33;0.80;;;0.50;;
72087;SDS011;59961;50.232;8.616;2023-05-10T01:59:59;0.60;;;0.60;;
72087;SDS011;59961;50.232;8.616;2023-05-10T02:02:25;0.70;;;0.50;;
72087;SDS011;59961;50.232;8.616;2023-05-10T02:04:52;5.10;;;0.50;;
72087;SDS011;59961;50.232;8.616;2023-05-10T02:07:18;0.60;;;0.60;;
72087;SDS011;59961;50.232;8.616;2023-05-10T02:09:44;1.07;;;0.50;;
72087;SDS011;59961;50.232;8.616;2023-05-10T02:12:12;0.60;;;0.40;;
72087;SDS011;59961;50.232;8.616;2023-05-10T02:14:38;1.00;;;0.50;;
72087;SDS011;59961;50.232;8.616;2023-05-10T02:17:04;0.60;;;0.60;;
72087;SDS011;59961;50.232;8.616;2023-05-10T02:19:30;0.65;;;0.50;;
72087;SDS011;59961;50.232;8.616;2023-05-10T02:21:56;2.65;;;0.60;;
72087;SDS011;59961;50.232;8.616;2023-05-10T02:24:22;0.30;;;0.30;;
72087;SDS011;59961;50.232;8.616;2023-05-10T02:26:49;2.65;;;0.50;;
72087;SDS011;59961;50.232;8.616;2023-05-10T02:29:14;3.90;;;0.63;;
72087;SDS011;59961;50.232;8.616;2023-05-10T02:31:40;0.65;;;0.50;;
72087;SDS011;59961;50.232;8.616;2023-05-10T02:34:08;0.63;;;0.57;;
72087;SDS011;59961;50.232;8.616;2023-05-10T02:36:33;2.23;;;0.50;;
72087;SDS011;59961;50.232;8.616;2023-05-10T02:38:59;0.40;;;0.40;;
72087;SDS011;59961;50.232;8.616;2023-05-10T02:41:25;0.60;;;0.40;;
72087;SDS011;59961;50.232;8.616;2023-05-10T02:43:51;0.60;;;0.60;;
72087;SDS011;59961;50.232;8.616;2023-05-10T02:46:20;3.13;;;0.88;;
72087;SDS011;59961;50.232;8.616;2023-05-10T02:48:46;1.87;;;0.70;;
72087;SDS011;59961;50.232;8.616;2023-05-10T02:51:11;1.50;;;0.60;;
72087;SDS011;59961;50.232;8.616;2023-05-10T02:53:38;0.60;;;0.47;;
72087;SDS011;59961;50.232;8.616;2023-05-10T02:56:08;1.67;;;0.73;;
72087;SDS011;59961;50.232;8.616;2023-05-10T02:58:37;1.08;;;0.70;;
72087;SDS011;59961;50.232;8.616;2023-05-10T03:01:02;1.15;;;0.70;;
72087;SDS011;59961;50.232;8.616;2023-05-10T03:03:27;2.20;;;0.50;;
72087;SDS011;59961;50.232;8.616;2023-05-10T03:05:52;1.55;;;0.50;;
72087;SDS011;59961;50.232;8.616;2023-05-10T03:08:20;0.40;;;0.40;;
72087;SDS011;59961;50.232;8.616;2023-05-10T03:10:54;2.20;;;0.60;;
72087;SDS011;59961;50.232;8.616;2023-05-10T03:18:34;2.15;;;0.50;;
72087;SDS011;59961;50.232;8.616;2023-05-10T03:21:02;3.40;;;0.60;;
72087;SDS011;59961;50.232;8.616;2023-05-10T03:23:47;0.60;;;0.50;;
72087;SDS011;59961;50.232;8.616;2023-05-10T03:26:17;10.30;;;0.70;;
72087;SDS011;59961;50.232;8.616;2023-05-10T03:28:42;0.68;;;0.55;;
72087;SDS011;59961;50.232;8.616;2023-05-10T03:31:08;0.77;;;0.50;;
72087;SDS011;59961;50.232;8.616;2023-05-10T03:33:33;2.40;;;0.70;;
72087;SDS011;59961;50.232;8.616;2023-05-10T03:35:59;1.00;;;0.70;;
72087;SDS011;59961;50.232;8.616;2023-05-10T03:38:24;0.50;;;0.50;;
72087;SDS011;59961;50.232;8.616;2023-05-10T03:40:49;2.67;;;0.60;;
72087;SDS011;59961;50.232;8.616;2023-05-10T03:43:14;1.17;;;0.70;;
72087;SDS011;59961;50.232;8.616;2023-05-10T03:45:40;5.38;;;0.77;;
72087;SDS011;59961;50.232;8.616;2023-05-10T03:48:05;0.90;;;0.70;;
72087;SDS011;59961;50.232;8.616;2023-05-10T03:50:30;1.87;;;1.00;;
72087;SDS011;59961;50.232;8.616;2023-05-10T03:52:55;4.23;;;1.10;;
72087;SDS011;59961;50.232;8.616;2023-05-10T03:55:20;1.57;;;0.77;;
72087;SDS011;59961;50.232;8.616;2023-05-10T03:57:47;1.20;;;0.70;;
72087;SDS011;59961;50.232;8.616;2023-05-10T04:00:14;1.27;;;0.82;;
72087;SDS011;59961;50.232;8.616;2023-05-10T04:02:39;2.63;;;0.77;;
72087;SDS011;59961;50.232;8.616;2023-05-10T04:05:05;1.10;;;0.80;;
72087;SDS011;59961;50.232;8.616;2023-05-10T04:07:30;1.00;;;0.60;;
72087;SDS011;59961;50.232;8.616;2023-05-10T04:09:55;1.10;;;0.60;;
72087;SDS011;59961;50.232;8.616;2023-05-10T04:12:20;2.05;;;0.95;;
72087;SDS011;59961;50.232;8.616;2023-05-10T04:14:45;3.28;;;0.80;;
72087;SDS011;59961;50.232;8.616;2023-05-10T04:17:10;2.23;;;0.63;;
72087;SDS011;59961;50.232;8.616;2023-05-10T04:19:36;1.33;;;0.70;;
72087;SDS011;59961;50.232;8.616;2023-05-10T04:22:02;1.63;;;0.90;;
72087;SDS011;59961;50.232;8.616;2023-05-10T04:24:27;0.90;;;0.70;;
72087;SDS011;59961;50.232;8.616;2023-05-10T04:26:53;2.65;;;1.00;;
72087;SDS011;59961;50.232;8.616;2023-05-10T04:29:18;1.38;;;0.90;;
72087;SDS011;59961;50.232;8.616;2023-05-10T04:31:43;2.03;;;0.80;;
72087;SDS011;59961;50.232;8.616;2023-05-10T04:34:09;3.38;;;0.80;;
72087;SDS011;59961;50.232;8.616;2023-05-10T04:36:34;2.53;;;0.93;;
72087;SDS011;59961;50.232;8.616;2023-05-10T04:39:01;1.23;;;0.90;;
72087;SDS011;59961;50.232;8.616;2023-05-10T04:41:27;2.40;;;1.00;;
72087;SDS011;59961;50.232;8.616;2023-05-10T04:43:53;1.02;;;0.68;;
72087;SDS011;59961;50.232;8.616;2023-05-10T04:46:18;1.48;;;0.80;;
72087;SDS011;59961;50.232;8.616;2023-05-10T04:48:43;1.10;;;0.80;;
72087;SDS011;59961;50.232;8.616;2023-05-10T04:51:08;1.10;;;0.90;;
72087;SDS011;59961;50.232;8.616;2023-05-10T04:53:33;1.88;;;1.10;;
72087;SDS011;59961;50.232;8.616;2023-05-10T04:55:58;2.90;;;1.20;;
72087;SDS011;59961;50.232;8.616;2023-05-10T04:58:24;3.15;;;1.23;;
72087;SDS011;59961;50.232;8.616;2023-05-10T05:00:49;2.85;;;1.10;;
72087;SDS011;59961;50.232;8.616;2023-05-10T05:03:15;2.63;;;1.10;;
72087;SDS011;59961;50.232;8.616;2023-05-10T05:05:40;1.75;;;1.13;;
72087;SDS011;59961;50.232;8.616;2023-05-10T05:08:06;2.83;;;1.25;;
72087;SDS011;59961;50.232;8.616;2023-05-10T05:10:31;2.40;;;1.00;;
72087;SDS011;59961;50.232;8.616;2023-05-10T05:12:56;2.73;;;1.20;;
72087;SDS011;59961;50.232;8.616;2023-05-10T05:15:21;1.45;;;1.00;;
72087;SDS011;59961;50.232;8.616;2023-05-10T05:17:46;2.33;;;1.30;;
72087;SDS011;59961;50.232;8.616;2023-05-10T05:20:12;1.73;;;1.10;;
72087;SDS011;59961;50.232;8.616;2023-05-10T05:22:37;2.47;;;1.27;;
72087;SDS011;59961;50.232;8.616;2023-05-10T05:25:03;1.63;;;1.10;;
72087;SDS011;59961;50.232;8.616;2023-05-10T05:27:28;2.75;;;1.40;;
72087;SDS011;59961;50.232;8.616;2023-05-10T05:29:53;3.90;;;1.10;;
72087;SDS011;59961;50.232;8.616;2023-05-10T05:32:19;1.40;;;0.90;;
72087;SDS011;59961;50.232;8.616;2023-05-10T05:34:44;4.00;;;1.50;;
72087;SDS011;59961;50.232;8.616;2023-05-10T05:37:16;2.30;;;1.20;;
72087;SDS011;59961;50.232;8.616;2023-05-10T05:39:42;1.95;;;1.13;;
72087;SDS011;59961;50.232;8.616;2023-05-10T05:42:07;3.20;;;1.40;;
72087;SDS011;59961;50.232;8.616;2023-05-10T05:44:32;1.73;;;1.13;;
72087;SDS011;59961;50.232;8.616;2023-05-10T05:46:57;1.92;;;1.20;;
72087;SDS011;59961;50.232;8.616;2023-05-10T05:49:23;2.37;;;1.17;;
72087;SDS011;59961;50.232;8.616;2023-05-10T05:51:48;2.47;;;1.20;;
72087;SDS011;59961;50.232;8.616;2023-05-10T05:54:15;4.15;;;1.60;;
72087;SDS011;59961;50.232;8.616;2023-05-10T05:56:40;3.47;;;2.00;;
72087;SDS011;59961;50.232;8.616;2023-05-10T05:59:05;2.88;;;1.63;;
72087;SDS011;59961;50.232;8.616;2023-05-10T06:01:30;14.57;;;2.80;;
72087;SDS011;59961;50.232;8.616;2023-05-10T06:03:56;2.60;;;1.60;;
72087;SDS011;59961;50.232;8.616;2023-05-10T06:06:22;3.83;;;1.60;;
72087;SDS011;59961;50.232;8.616;2023-05-10T06:08:47;3.60;;;1.63;;
72087;SDS011;59961;50.232;8.616;2023-05-10T06:11:12;4.53;;;1.67;;
72087;SDS011;59961;50.232;8.616;2023-05-10T06:13:38;3.50;;;1.88;;
72087;SDS011;59961;50.232;8.616;2023-05-10T06:16:03;5.10;;;2.47;;
72087;SDS011;59961;50.232;8.616;2023-05-10T06:18:28;4.33;;;2.50;;
72087;SDS011;59961;50.232;8.616;2023-05-10T06:20:53;3.15;;;1.50;;
72087;SDS011;59961;50.232;8.616;2023-05-10T06:23:18;4.40;;;2.07;;
72087;SDS011;59961;50.232;8.616;2023-05-10T06:25:44;6.13;;;1.90;;
72087;SDS011;59961;50.232;8.616;2023-05-10T06:28:09;4.65;;;1.80;;
72087;SDS011;59961;50.232;8.616;2023-05-10T06:30:35;3.97;;;2.00;;
72087;SDS011;59961;50.232;8.616;2023-05-10T06:33:00;3.85;;;1.65;;
72087;SDS011;59961;50.232;8.616;2023-05-10T06:35:25;5.57;;;2.27;;
72087;SDS011;59961;50.232;8.616;2023-05-10T06:37:51;4.23;;;2.37;;
72087;SDS011;59961;50.232;8.616;2023-05-10T06:40:16;5.73;;;2.00;;
72087;SDS011;59961;50.232;8.616;2023-05-10T06:42:41;6.88;;;1.90;;
72087;SDS011;59961;50.232;8.616;2023-05-10T06:45:07;2.80;;;1.30;;
72087;SDS011;59961;50.232;8.616;2023-05-10T06:47:33;7.85;;;2.65;;
72087;SDS011;59961;50.232;8.616;2023-05-10T06:49:58;5.83;;;2.07;;
72087;SDS011;59961;50.232;8.616;2023-05-10T06:52:23;5.90;;;1.77;;
72087;SDS011;59961;50.232;8.616;2023-05-10T06:54:48;3.83;;;1.97;;
72087;SDS011;59961;50.232;8.616;2023-05-10T06:57:14;3.23;;;1.83;;
72087;SDS011;59961;50.232;8.616;2023-05-10T06:59:39;5.87;;;2.00;;
72087;SDS011;59961;50.232;8.616;2023-05-10T07:02:04;2.83;;;1.60;;
72087;SDS011;59961;50.232;8.616;2023-05-10T07:04:30;4.57;;;2.03;;
72087;SDS011;59961;50.232;8.616;2023-05-10T07:06:55;4.17;;;1.70;;
72087;SDS011;59961;50.232;8.616;2023-05-10T07:09:20;3.93;;;1.83;;
72087;SDS011;59961;50.232;8.616;2023-05-10T07:11:45;5.43;;;1.67;;
72087;SDS011;59961;50.232;8.616;2023-05-10T07:14:11;5.30;;;1.87;;
72087;SDS011;59961;50.232;8.616;2023-05-10T07:16:36;3.90;;;1.67;;
72087;SDS011;59961;50.232;8.616;2023-05-10T07:19:01;12.85;;;1.88;;
72087;SDS011;59961;50.232;8.616;2023-05-10T07:21:27;5.85;;;1.30;;
72087;SDS011;59961;50.232;8.616;2023-05-10T07:23:53;3.20;;;1.38;;
72087;SDS011;59961;50.232;8.616;2023-05-10T07:26:18;3.07;;;1.60;;
72087;SDS011;59961;50.232;8.616;2023-05-10T07:28:44;4.83;;;1.50;;
72087;SDS011;59961;50.232;8.616;2023-05-10T07:31:09;4.60;;;1.55;;
72087;SDS011;59961;50.232;8.616;2023-05-10T07:33:34;2.85;;;1.40;;
72087;SDS011;59961;50.232;8.616;2023-05-10T07:35:59;4.93;;;1.42;;
72087;SDS011;59961;50.232;8.616;2023-05-10T07:38:25;7.55;;;1.90;;
72087;SDS011;59961;50.232;8.616;2023-05-10T07:40:50;3.57;;;1.37;;
72087;SDS011;59961;50.232;8.616;2023-05-10T07:43:15;4.20;;;2.10;;
72087;SDS011;59961;50.232;8.616;2023-05-10T07:45:40;5.10;;;1.95;;
72087;SDS011;59961;50.232;8.616;2023-05-10T07:48:06;3.00;;;1.97;;
72087;SDS011;59961;50.232;8.616;2023-05-10T07:50:31;5.10;;;1.90;;
72087;SDS011;59961;50.232;8.616;2023-05-10T07:52:57;7.17;;;2.30;;
72087;SDS011;59961;50.232;8.616;2023-05-10T07:55:22;4.43;;;1.90;;
72087;SDS011;59961;50.232;8.616;2023-05-10T07:57:47;3.03;;;1.60;;
72087;SDS011;59961;50.232;8.616;2023-05-10T08:00:12;3.17;;;1.53;;
72087;SDS011;59961;50.232;8.616;2023-05-10T08:02:38;6.07;;;2.10;;
72087;SDS011;59961;50.232;8.616;2023-05-10T08:05:03;6.10;;;2.30;;
72087;SDS011;59961;50.232;8.616;2023-05-10T08:07:30;3.78;;;2.00;;
72087;SDS011;59961;50.232;8.616;2023-05-10T08:09:55;7.53;;;2.37;;
72087;SDS011;59961;50.232;8.616;2023-05-10T08:12:20;4.57;;;1.90;;
72087;SDS011;59961;50.232;8.616;2023-05-10T08:14:45;4.70;;;2.45;;
72087;SDS011;59961;50.232;8.616;2023-05-10T08:17:10;5.15;;;2.38;;
72087;SDS011;59961;50.232;8.616;2023-05-10T08:19:36;4.70;;;2.00;;
72087;SDS011;59961;50.232;8.616;2023-05-10T08:22:01;12.53;;;3.03;;
72087;SDS011;59961;50.232;8.616;2023-05-10T08:24:26;5.00;;;2.00;;
72087;SDS011;59961;50.232;8.616;2023-05-10T08:26:51;4.85;;;1.75;;
72087;SDS011;59961;50.232;8.616;2023-05-10T08:29:16;3.90;;;2.00;;
72087;SDS011;59961;50.232;8.616;2023-05-10T08:31:41;4.90;;;1.70;;
72087;SDS011;59961;50.232;8.616;2023-05-10T08:34:07;5.23;;;1.80;;
72087;SDS011;59961;50.232;8.616;2023-05-10T08:36:32;6.07;;;2.00;;
72087;SDS011;59961;50.232;8.616;2023-05-10T08:38:57;4.63;;;1.65;;
72087;SDS011;59961;50.232;8.616;2023-05-10T08:41:23;5.47;;;2.03;;
72087;SDS011;59961;50.232;8.616;2023-05-10T08:43:49;5.00;;;2.00;;
72087;SDS011;59961;50.232;8.616;2023-05-10T08:46:15;3.53;;;1.90;;
72087;SDS011;59961;50.232;8.616;2023-05-10T08:48:42;7.18;;;1.60;;
72087;SDS011;59961;50.232;8.616;2023-05-10T08:51:09;4.70;;;1.70;;
72087;SDS011;59961;50.232;8.616;2023-05-10T08:53:34;5.83;;;2.03;;
72087;SDS011;59961;50.232;8.616;2023-05-10T08:56:01;3.03;;;1.60;;
72087;SDS011;59961;50.232;8.616;2023-05-10T08:58:27;3.42;;;1.88;;
72087;SDS011;59961;50.232;8.616;2023-05-10T09:00:52;4.63;;;1.90;;
72087;SDS011;59961;50.232;8.616;2023-05-10T09:03:18;3.90;;;1.38;;
72087;SDS011;59961;50.232;8.616;2023-05-10T09:05:43;4.50;;;1.80;;
72087;SDS011;59961;50.232;8.616;2023-05-10T09:08:09;3.23;;;1.60;;
72087;SDS011;59961;50.232;8.616;2023-05-10T09:10:35;4.20;;;1.50;;
72087;SDS011;59961;50.232;8.616;2023-05-10T09:13:00;3.87;;;2.40;;
72087;SDS011;59961;50.232;8.616;2023-05-10T09:15:26;1.88;;;1.05;;
72087;SDS011;59961;50.232;8.616;2023-05-10T09:17:51;5.28;;;1.08;;
72087;SDS011;59961;50.232;8.616;2023-05-10T09:20:16;2.83;;;1.27;;
72087;SDS011;59961;50.232;8.616;2023-05-10T09:22:45;4.33;;;1.37;;
72087;SDS011;59961;50.232;8.616;2023-05-10T09:25:11;3.67;;;1.50;;
72087;SDS011;59961;50.232;8.616;2023-05-10T09:27:36;3.08;;;1.73;;
72087;SDS011;59961;50.232;8.616;2023-05-10T09:30:02;5.20;;;3.65;;
72087;SDS011;59961;50.232;8.616;2023-05-10T09:32:40;8.60;;;1.93;;
72087;SDS011;59961;50.232;8.616;2023-05-10T09:35:16;1.90;;;1.17;;
72087;SDS011;59961;50.232;8.616;2023-05-10T09:37:43;4.20;;;2.22;;
72087;SDS011;59961;50.232;8.616;2023-05-10T09:40:12;2.00;;;1.25;;
72087;SDS011;59961;50.232;8.616;2023-05-10T09:42:37;3.15;;;1.52;;
72087;SDS011;59961;50.232;8.616;2023-05-10T09:45:03;2.27;;;1.10;;
72087;SDS011;59961;50.232;8.616;2023-05-10T09:47:29;1.90;;;1.60;;
72087;SDS011;59961;50.232;8.616;2023-05-10T09:49:56;4.20;;;1.10;;
72087;SDS011;59961;50.232;8.616;2023-05-10T09:52:27;3.15;;;0.80;;
72087;SDS011;59961;50.232;8.616;2023-05-10T09:54:53;3.00;;;1.10;;
72087;SDS011;59961;50.232;8.616;2023-05-10T09:57:20;2.13;;;0.90;;
72087;SDS011;59961;50.232;8.616;2023-05-10T09:59:45;1.65;;;1.00;;
72087;SDS011;59961;50.232;8.616;2023-05-10T10:02:11;3.20;;;1.20;;
72087;SDS011;59961;50.232;8.616;2023-05-10T10:04:40;2.40;;;1.33;;
72087;SDS011;59961;50.232;8.616;2023-05-10T10:07:05;5.05;;;1.10;;
72087;SDS011;59961;50.232;8.616;2023-05-10T10:09:31;2.40;;;1.30;;
72087;SDS011;59961;50.232;8.616;2023-05-10T10:11:56;4.10;;;1.67;;
72087;SDS011;59961;50.232;8.616;2023-05-10T10:14:22;1.33;;;0.95;;
72087;SDS011;59961;50.232;8.616;2023-05-10T10:16:48;3.65;;;1.25;;
72087;SDS011;59961;50.232;8.616;2023-05-10T10:19:13;3.70;;;1.33;;
72087;SDS011;59961;50.232;8.616;2023-05-10T10:21:39;3.45;;;1.40;;
72087;SDS011;59961;50.232;8.616;2023-05-10T10:24:05;2.67;;;1.10;;
72087;SDS011;59961;50.232;8.616;2023-05-10T10:26:30;2.17;;;1.08;;
72087;SDS011;59961;50.232;8.616;2023-05-10T10:29:10;4.57;;;1.30;;
72087;SDS011;59961;50.232;8.616;2023-05-10T10:31:49;3.20;;;1.30;;
72087;SDS011;59961;50.232;8.616;2023-05-10T10:34:22;1.73;;;0.88;;
72087;SDS011;59961;50.232;8.616;2023-05-10T10:36:48;2.28;;;1.13;;
72087;SDS011;59961;50.232;8.616;2023-05-10T10:39:14;3.00;;;1.20;;
72087;SDS011;59961;50.232;8.616;2023-05-10T10:41:48;2.75;;;1.38;;
72087;SDS011;59961;50.232;8.616;2023-05-10T10:44:23;3.53;;;1.40;;
72087;SDS011;59961;50.232;8.616;2023-05-10T10:50:02;5.10;;;1.40;;
72087;SDS011;59961;50.232;8.616;2023-05-10T10:52:32;3.30;;;1.38;;
72087;SDS011;59961;50.232;8.616;2023-05-10T10:55:01;3.78;;;1.65;;
72087;SDS011;59961;50.232;8.616;2023-05-10T10:57:26;7.38;;;1.67;;
72087;SDS011;59961;50.232;8.616;2023-05-10T10:59:53;5.60;;;1.80;;
72087;SDS011;59961;50.232;8.616;2023-05-10T11:07:52;3.27;;;1.67;;
72087;SDS011;59961;50.232;8.616;2023-05-10T11:10:19;2.45;;;1.30;;
72087;SDS011;59961;50.232;8.616;2023-05-10T11:12:51;3.83;;;1.40;;
72087;SDS011;59961;50.232;8.616;2023-05-10T11:15:17;2.85;;;1.52;;
72087;SDS011;59961;50.232;8.616;2023-05-10T11:17:42;4.63;;;1.40;;
72087;SDS011;59961;50.232;8.616;2023-05-10T11:20:10;4.07;;;2.05;;
72087;SDS011;59961;50.232;8.616;2023-05-10T11:22:51;2.13;;;1.30;;
72087;SDS011;59961;50.232;8.616;2023-05-10T11:25:19;3.03;;;1.30;;
72087;SDS011;59961;50.232;8.616;2023-05-10T11:27:44;2.13;;;1.20;;
72087;SDS011;59961;50.232;8.616;2023-05-10T11:30:10;2.70;;;1.30;;
72087;SDS011;59961;50.232;8.616;2023-05-10T11:32:37;3.05;;;1.30;;
72087;SDS011;59961;50.232;8.616;2023-05-10T11:35:08;2.13;;;1.33;;
72087;SDS011;59961;50.232;8.616;2023-05-10T11:37:34;1.97;;;1.27;;
72087;SDS011;59961;50.232;8.616;2023-05-10T11:39:59;2.97;;;1.27;;
72087;SDS011;59961;50.232;8.616;2023-05-10T11:42:25;3.33;;;1.30;;
72087;SDS011;59961;50.232;8.616;2023-05-10T11:44:50;3.17;;;1.40;;
72087;SDS011;59961;50.232;8.616;2023-05-10T11:47:15;3.65;;;1.30;;
72087;SDS011;59961;50.232;8.616;2023-05-10T11:49:43;1.33;;;0.80;;
72087;SDS011;59961;50.232;8.616;2023-05-10T11:52:08;3.10;;;0.90;;
72087;SDS011;59961;50.232;8.616;2023-05-10T11:54:35;4.80;;;1.20;;
72087;SDS011;59961;50.232;8.616;2023-05-10T11:57:01;3.03;;;0.70;;
72087;SDS011;59961;50.232;8.616;2023-05-10T11:59:26;1.83;;;1.00;;
72087;SDS011;59961;50.232;8.616;2023-05-10T12:01:51;1.60;;;0.90;;
72087;SDS011;59961;50.232;8.616;2023-05-10T12:04:16;1.20;;;1.00;;
72087;SDS011;59961;50.232;8.616;2023-05-10T12:06:43;2.25;;;0.90;;
72087;SDS011;59961;50.232;8.616;2023-05-10T12:09:09;3.17;;;1.10;;
72087;SDS011;59961;50.232;8.616;2023-05-10T12:11:36;2.67;;;0.90;;
72087;SDS011;59961;50.232;8.616;2023-05-10T12:14:03;1.85;;;0.98;;
72087;SDS011;59961;50.232;8.616;2023-05-10T12:16:29;1.70;;;0.90;;
72087;SDS011;59961;50.232;8.616;2023-05-10T12:18:58;1.48;;;0.70;;
72087;SDS011;59961;50.232;8.616;2023-05-10T12:21:24;2.70;;;0.70;;
72087;SDS011;59961;50.232;8.616;2023-05-10T12:23:50;1.88;;;0.80;;
72087;SDS011;59961;50.232;8.616;2023-05-10T12:26:16;1.50;;;0.70;;
72087;SDS011;59961;50.232;8.616;2023-05-10T12:28:41;3.57;;;1.13;;
72087;SDS011;59961;50.232;8.616;2023-05-10T12:31:06;1.43;;;0.80;;
72087;SDS011;59961;50.232;8.616;2023-05-10T12:33:35;1.53;;;0.97;;
72087;SDS011;59961;50.232;8.616;2023-05-10T12:36:00;1.15;;;0.98;;
72087;SDS011;59961;50.232;8.616;2023-05-10T12:38:28;1.48;;;0.90;;
72087;SDS011;59961;50.232;8.616;2023-05-10T12:40:55;5.90;;;0.98;;
72087;SDS011;59961;50.232;8.616;2023-05-10T12:43:20;3.35;;;1.50;;
72087;SDS011;59961;50.232;8.616;2023-05-10T12:45:45;1.40;;;1.00;;
72087;SDS011;59961;50.232;8.616;2023-05-10T12:48:13;1.42;;;0.70;;
72087;SDS011;59961;50.232;8.616;2023-05-10T12:50:38;2.07;;;1.87;;
72087;SDS011;59961;50.232;8.616;2023-05-10T12:53:03;1.35;;;0.80;;
72087;SDS011;59961;50.232;8.616;2023-05-10T12:55:28;1.77;;;1.07;;
72087;SDS011;59961;50.232;8.616;2023-05-10T12:57:53;2.38;;;0.90;;
72087;SDS011;59961;50.232;8.616;2023-05-10T13:00:19;2.60;;;1.30;;
72087;SDS011;59961;50.232;8.616;2023-05-10T13:02:44;1.60;;;0.80;;
72087;SDS011;59961;50.232;8.616;2023-05-10T13:05:09;2.80;;;1.03;;
72087;SDS011;59961;50.232;8.616;2023-05-10T13:07:34;2.27;;;1.40;;
72087;SDS011;59961;50.232;8.616;2023-05-10T13:10:00;4.53;;;1.07;;
72087;SDS011;59961;50.232;8.616;2023-05-10T13:12:25;1.75;;;0.95;;
72087;SDS011;59961;50.232;8.616;2023-05-10T13:14:50;1.23;;;0.93;;
72087;SDS011;59961;50.232;8.616;2023-05-10T13:17:15;1.88;;;1.00;;
72087;SDS011;59961;50.232;8.616;2023-05-10T13:19:40;1.95;;;1.75;;
72087;SDS011;59961;50.232;8.616;2023-05-10T13:22:05;2.43;;;1.27;;
72087;SDS011;59961;50.232;8.616;2023-05-10T13:24:30;1.65;;;1.10;;
72087;SDS011;59961;50.232;8.616;2023-05-10T13:26:55;3.42;;;1.00;;
72087;SDS011;59961;50.232;8.616;2023-05-10T13:29:21;2.20;;;1.07;;
72087;SDS011;59961;50.232;8.616;2023-05-10T13:31:47;1.42;;;0.98;;
72087;SDS011;59961;50.232;8.616;2023-05-10T13:34:12;2.47;;;0.93;;
72087;SDS011;59961;50.232;8.616;2023-05-10T13:36:37;1.77;;;0.95;;
72087;SDS011;59961;50.232;8.616;2023-05-10T13:39:03;2.20;;;1.10;;
72087;SDS011;59961;50.232;8.616;2023-05-10T13:41:30;1.75;;;1.05;;
72087;SDS011;59961;50.232;8.616;2023-05-10T13:43:55;1.40;;;1.08;;
72087;SDS011;59961;50.232;8.616;2023-05-10T13:46:20;2.10;;;1.30;;
72087;SDS011;59961;50.232;8.616;2023-05-10T13:48:45;2.92;;;1.08;;
72087;SDS011;59961;50.232;8.616;2023-05-10T13:51:10;0.85;;;0.75;;
72087;SDS011;59961;50.232;8.616;2023-05-10T13:53:35;2.58;;;1.00;;
72087;SDS011;59961;50.232;8.616;2023-05-10T13:56:01;2.67;;;1.03;;
72087;SDS011;59961;50.232;8.616;2023-05-10T13:58:27;1.05;;;0.70;;
72087;SDS011;59961;50.232;8.616;2023-05-10T14:00:53;6.85;;;0.90;;
72087;SDS011;59961;50.232;8.616;2023-05-10T14:03:19;4.10;;;1.00;;
72087;SDS011;59961;50.232;8.616;2023-05-10T14:05:45;4.00;;;1.38;;
72087;SDS011;59961;50.232;8.616;2023-05-10T14:08:10;1.60;;;1.10;;
72087;SDS011;59961;50.232;8.616;2023-05-10T14:10:37;1.98;;;1.02;;
72087;SDS011;59961;50.232;8.616;2023-05-10T14:13:03;2.17;;;1.10;;
72087;SDS011;59961;50.232;8.616;2023-05-10T14:15:28;1.90;;;1.03;;
72087;SDS011;59961;50.232;8.616;2023-05-10T14:17:53;3.67;;;1.10;;
72087;SDS011;59961;50.232;8.616;2023-05-10T14:20:18;1.00;;;0.90;;
72087;SDS011;59961;50.232;8.616;2023-05-10T14:22:43;2.30;;;1.00;;
72087;SDS011;59961;50.232;8.616;2023-05-10T14:25:08;1.50;;;0.70;;
72087;SDS011;59961;50.232;8.616;2023-05-10T14:27:34;1.10;;;0.83;;
72087;SDS011;59961;50.232;8.616;2023-05-10T14:29:59;2.40;;;0.80;;
72087;SDS011;59961;50.232;8.616;2023-05-10T14:32:24;2.93;;;0.60;;
72087;SDS011;59961;50.232;8.616;2023-05-10T14:34:49;2.22;;;0.85;;
72087;SDS011;59961;50.232;8.616;2023-05-10T14:37:15;4.13;;;1.00;;
72087;SDS011;59961;50.232;8.616;2023-05-10T14:39:40;2.90;;;0.80;;
72087;SDS011;59961;50.232;8.616;2023-05-10T14:42:07;1.05;;;0.90;;
72087;SDS011;59961;50.232;8.616;2023-05-10T14:44:32;3.67;;;1.00;;
72087;SDS011;59961;50.232;8.616;2023-05-10T14:46:57;4.00;;;0.82;;
72087;SDS011;59961;50.232;8.616;2023-05-10T14:49:22;1.02;;;0.68;;
72087;SDS011;59961;50.232;8.616;2023-05-10T14:51:50;1.35;;;1.02;;
72087;SDS011;59961;50.232;8.616;2023-05-10T14:54:15;1.73;;;0.70;;
72087;SDS011;59961;50.232;8.616;2023-05-10T14:56:40;1.52;;;0.95;;
72087;SDS011;59961;50.232;8.616;2023-05-10T14:59:06;0.97;;;0.70;;
72087;SDS011;59961;50.232;8.616;2023-05-10T15:01:31;1.00;;;0.70;;
72087;SDS011;59961;50.232;8.616;2023-05-10T15:03:57;3.15;;;0.80;;